createdAt,value
2022-11-09T00:04:59.472Z,21.95
2022-11-09T00:10:21.270Z,22.45
2022-11-09T00:15:43.080Z,21.92
2022-11-09T00:21:10.447Z,37.90
2022-11-09T00:26:32.647Z,19.95
2022-11-09T00:31:54.441Z,20.10
2022-11-09T00:37:16.261Z,19.48
2022-11-09T00:42:38.103Z,18.05
2022-11-09T00:47:59.886Z,20.83
2022-11-09T00:53:22.772Z,19.05
2022-11-09T00:58:44.589Z,19.55
2022-11-09T01:04:06.422Z,19.98
2022-11-09T01:09:28.280Z,20.73
2022-11-09T01:14:50.233Z,19.52
2022-11-09T01:20:12.097Z,19.65
2022-11-09T01:25:34.166Z,19.35
2022-11-09T01:30:56.031Z,18.58
2022-11-09T01:36:21.138Z,19.27
2022-11-09T01:41:42.978Z,17.80
2022-11-09T01:47:11.678Z,18.83
2022-11-09T01:52:40.680Z,18.67
2022-11-09T01:58:07.492Z,20.08
2022-11-09T02:03:42.784Z,19.17
2022-11-09T02:09:42.085Z,18.48
2022-11-09T02:15:06.959Z,19.92
2022-11-09T02:20:28.829Z,19.40
2022-11-09T02:26:06.215Z,19.33
2022-11-09T02:31:33.594Z,19.60
2022-11-09T02:36:55.394Z,19.35
2022-11-09T02:42:21.453Z,19.70
2022-11-09T02:47:43.610Z,20.77
2022-11-09T02:53:05.458Z,19.15
2022-11-09T02:58:27.248Z,20.73
2022-11-09T03:03:49.090Z,18.55
2022-11-09T03:09:12.079Z,20.70
2022-11-09T03:14:33.853Z,20.30
2022-11-09T03:19:55.652Z,21.35
2022-11-09T03:25:17.559Z,21.05
2022-11-09T03:30:39.309Z,19.52
2022-11-09T03:36:01.468Z,20.58
2022-11-09T03:41:23.234Z,20.17
2022-11-09T03:46:45.060Z,21.33
2022-11-09T03:52:06.884Z,20.70
2022-11-09T03:57:28.656Z,21.10
2022-11-09T04:02:51.065Z,21.05
2022-11-09T04:08:12.851Z,20.75
2022-11-09T04:13:34.781Z,21.30
2022-11-09T04:18:56.727Z,22.00
2022-11-09T04:24:18.529Z,21.70
2022-11-09T04:29:40.340Z,21.35
2022-11-09T04:35:02.773Z,21.27
2022-11-09T04:40:27.544Z,21.13
2022-11-09T04:45:49.372Z,21.90
2022-11-09T04:51:11.522Z,21.13
2022-11-09T04:56:33.346Z,20.80
2022-11-09T05:01:55.134Z,20.65
2022-11-09T05:07:17.100Z,20.52
2022-11-09T05:12:42.232Z,23.10
2022-11-09T05:18:07.886Z,22.92
2022-11-09T05:23:29.695Z,22.52
2022-11-09T05:28:51.457Z,23.05
2022-11-09T05:34:13.751Z,22.27
2022-11-09T05:39:35.548Z,22.40
2022-11-09T05:44:57.319Z,23.40
2022-11-09T05:50:19.325Z,22.67
2022-11-09T05:55:41.206Z,23.23
2022-11-09T06:01:08.786Z,21.00
2022-11-09T06:06:30.581Z,22.50
2022-11-09T06:11:52.483Z,22.45
2022-11-09T06:17:14.657Z,21.42
2022-11-09T06:22:36.468Z,22.30
2022-11-09T06:27:59.494Z,22.48
2022-11-09T06:33:21.872Z,23.17
2022-11-09T06:38:44.014Z,21.70
2022-11-09T06:44:05.935Z,21.13
2022-11-09T06:49:27.704Z,24.60
2022-11-09T06:54:49.464Z,23.17
2022-11-09T07:00:11.967Z,21.67
2022-11-09T07:05:38.609Z,22.35
2022-11-09T07:16:28.395Z,24.63
2022-11-09T07:21:50.155Z,23.48
2022-11-09T07:27:11.949Z,25.02
2022-11-09T07:38:27.951Z,23.25
2022-11-09T07:43:49.976Z,22.83
2022-11-09T07:49:25.643Z,21.95
2022-11-09T07:54:52.481Z,23.43
2022-11-09T08:00:19.871Z,24.40
2022-11-09T08:05:44.483Z,22.00
2022-11-09T08:11:06.555Z,23.27
2022-11-09T08:16:32.249Z,24.50
2022-11-09T08:22:03.147Z,24.25
2022-11-09T08:32:48.097Z,22.83
2022-11-09T08:38:09.922Z,23.42
2022-11-09T08:43:32.050Z,22.10
2022-11-09T08:48:53.908Z,22.00
2022-11-09T08:54:15.670Z,21.92
2022-11-09T08:59:37.583Z,22.35
2022-11-09T09:05:00.117Z,22.48
2022-11-09T09:10:21.963Z,24.02
2022-11-09T09:15:43.747Z,21.73
2022-11-09T09:21:07.510Z,22.50
2022-11-09T09:26:29.327Z,22.30
2022-11-09T09:31:51.135Z,21.58
2022-11-09T09:37:13.024Z,21.92
2022-11-09T09:42:37.540Z,23.52
2022-11-09T09:48:09.117Z,22.13
2022-11-09T09:53:53.432Z,23.40
2022-11-09T09:59:20.242Z,21.50
2022-11-09T10:04:42.256Z,22.58
2022-11-09T10:10:39.322Z,23.17
2022-11-09T10:16:26.316Z,24.38
2022-11-09T10:21:50.842Z,22.20
2022-11-09T10:27:33.975Z,24.90
2022-11-09T10:33:19.632Z,23.10
2022-11-09T10:38:47.319Z,23.67
2022-11-09T10:44:17.297Z,22.15
2022-11-09T10:49:40.758Z,22.65
2022-11-09T10:55:24.313Z,22.75
2022-11-09T11:01:01.450Z,22.58
2022-11-09T11:06:23.180Z,23.15
2022-11-09T11:11:45.415Z,24.20
2022-11-09T11:17:25.201Z,21.92
2022-11-09T11:22:47.317Z,21.55
2022-11-09T11:28:19.963Z,22.00
2022-11-09T11:33:42.585Z,21.45
2022-11-09T11:39:29.496Z,22.00
2022-11-09T11:45:39.651Z,21.38
2022-11-09T11:51:32.191Z,21.48
2022-11-09T11:57:08.796Z,20.98
2022-11-09T12:08:47.603Z,22.00
2022-11-09T12:14:43.348Z,19.67
2022-11-09T12:20:20.430Z,20.63
2022-11-09T12:25:53.091Z,21.42
2022-11-09T12:31:36.438Z,20.77
2022-11-09T12:37:03.055Z,20.90
2022-11-09T12:48:24.180Z,18.65
2022-11-09T12:53:45.982Z,20.15
2022-11-09T12:59:27.305Z,19.10
2022-11-09T13:04:57.276Z,18.02
2022-11-09T13:10:25.143Z,20.02
2022-11-09T13:16:09.331Z,20.42
2022-11-09T13:21:34.665Z,21.48
2022-11-09T13:27:02.436Z,20.77
2022-11-09T13:32:27.522Z,20.40
2022-11-09T13:37:57.504Z,20.73
2022-11-09T13:43:32.728Z,20.35
2022-11-09T13:48:55.541Z,21.02
2022-11-09T13:54:38.111Z,21.67
2022-11-09T14:00:00.928Z,20.52
2022-11-09T14:05:33.773Z,20.02
2022-11-09T14:11:30.297Z,21.10
2022-11-09T14:17:06.770Z,20.98
2022-11-09T14:22:35.312Z,20.20
2022-11-09T14:27:57.408Z,20.88
2022-11-09T14:33:32.519Z,20.73
2022-11-09T14:38:55.230Z,20.40
2022-11-09T14:44:29.636Z,20.42
2022-11-09T14:49:51.796Z,22.45
2022-11-09T14:55:15.826Z,21.40
2022-11-09T15:00:41.847Z,21.33
2022-11-09T15:06:12.601Z,21.40
2022-11-09T15:11:37.591Z,20.67
2022-11-09T15:17:14.991Z,21.70
2022-11-09T15:22:57.976Z,21.17
2022-11-09T15:28:21.977Z,22.15
2022-11-09T15:33:52.019Z,23.50
2022-11-09T15:39:18.087Z,21.45
2022-11-09T15:44:39.964Z,21.60
2022-11-09T15:50:06.924Z,22.83
2022-11-09T15:55:28.792Z,22.35
2022-11-09T16:00:50.625Z,23.25
2022-11-09T16:06:16.327Z,23.80
2022-11-09T16:11:38.142Z,24.02
2022-11-09T16:16:59.978Z,23.90
2022-11-09T16:22:21.820Z,24.67
2022-11-09T16:27:50.032Z,24.50
2022-11-09T16:33:12.602Z,24.90
2022-11-09T16:38:40.626Z,27.50
2022-11-09T16:44:03.544Z,27.20
2022-11-09T16:49:25.331Z,26.27
2022-11-09T16:54:47.167Z,25.95
2022-11-09T17:00:09.602Z,26.13
2022-11-09T17:05:31.417Z,27.73
2022-11-09T17:10:53.394Z,27.73
2022-11-09T17:16:15.265Z,28.55
2022-11-09T17:21:37.120Z,28.30
2022-11-09T17:26:59.231Z,26.92
2022-11-09T17:32:21.138Z,28.08
2022-11-09T17:37:43.073Z,28.80
2022-11-09T17:43:05.630Z,28.85
2022-11-09T17:48:27.416Z,27.75
2022-11-09T17:53:49.233Z,28.52
2022-11-09T17:59:11.473Z,28.30
2022-11-09T18:04:33.306Z,29.55
2022-11-09T18:09:55.531Z,28.52
2022-11-09T18:15:17.496Z,27.67
2022-11-09T18:20:39.442Z,28.77
2022-11-09T18:26:02.739Z,29.55
2022-11-09T18:31:24.772Z,28.00
2022-11-09T18:36:46.718Z,30.80
2022-11-09T18:42:08.530Z,30.85
2022-11-09T18:47:30.312Z,30.33
2022-11-09T18:52:52.206Z,33.63
2022-11-09T18:58:14.164Z,33.10
2022-11-09T19:03:35.967Z,33.58
2022-11-09T19:08:57.752Z,34.33
2022-11-09T19:14:19.582Z,35.20
2022-11-09T19:19:42.160Z,34.40
2022-11-09T19:25:04.380Z,33.92
2022-11-09T19:30:26.157Z,35.05
2022-11-09T19:36:15.127Z,34.72
2022-11-09T19:41:33.739Z,35.13
2022-11-09T19:46:55.609Z,36.42
2022-11-09T19:52:17.399Z,34.78
2022-11-09T19:57:39.382Z,35.10
2022-11-09T20:03:01.806Z,34.78
2022-11-09T20:08:24.169Z,35.10
2022-11-09T20:13:46.112Z,35.53
2022-11-09T20:19:11.570Z,34.83
2022-11-09T20:24:33.386Z,36.42
2022-11-09T20:29:55.331Z,36.15
2022-11-09T20:35:17.372Z,34.92
2022-11-09T20:40:39.196Z,38.40
2022-11-09T20:46:07.300Z,37.67
2022-11-09T20:51:29.168Z,36.55
2022-11-09T20:56:51.028Z,34.53
2022-11-09T21:02:15.764Z,36.55
2022-11-09T21:07:37.795Z,34.00
2022-11-09T21:12:59.583Z,34.97
2022-11-09T21:18:21.608Z,35.03
2022-11-09T21:23:44.629Z,34.70
2022-11-09T21:29:10.216Z,31.70
2022-11-09T21:34:36.540Z,34.15
2022-11-09T21:39:59.265Z,33.90
2022-11-09T21:45:21.129Z,33.58
2022-11-09T21:50:43.069Z,31.90
2022-11-09T21:56:05.471Z,33.35
2022-11-09T22:01:27.329Z,33.67
2022-11-09T22:06:49.195Z,34.95
2022-11-09T22:12:11.120Z,34.28
2022-11-09T22:17:32.934Z,33.58
2022-11-09T22:22:54.784Z,32.78
2022-11-09T22:28:16.640Z,33.22
2022-11-09T22:33:38.487Z,33.25
2022-11-09T22:39:00.327Z,33.85
2022-11-09T22:44:22.180Z,33.45
2022-11-09T22:49:44.014Z,31.80
2022-11-09T22:55:06.372Z,32.15
2022-11-09T23:00:28.311Z,33.28
2022-11-09T23:05:50.086Z,33.08
2022-11-09T23:11:15.929Z,32.60
2022-11-09T23:16:37.741Z,30.80
2022-11-09T23:21:59.503Z,33.47
2022-11-09T23:27:21.356Z,30.70
2022-11-09T23:32:43.198Z,31.65
2022-11-09T23:38:05.997Z,31.45
2022-11-09T23:43:27.793Z,30.98
2022-11-09T23:48:49.562Z,29.20
2022-11-09T23:54:11.446Z,31.30
2022-11-09T23:59:33.318Z,33.03
